sensor_id;sensor_type;location;lat;lon;timestamp;temperature;humidity
20479;DHT22;10398;52.490;13.434;2023-12-20T00:00:38;8.50;99.90
20479;DHT22;10398;52.490;13.434;2023-12-20T00:03:04;8.50;99.90
20479;DHT22;10398;52.490;13.434;2023-12-20T00:05:30;8.50;99.90
20479;DHT22;10398;52.490;13.434;2023-12-20T00:07:59;8.50;99.90
20479;DHT22;10398;52.490;13.434;2023-12-20T00:10:25;8.40;99.90
20479;DHT22;10398;52.490;13.434;2023-12-20T00:12:50;8.50;99.90
20479;DHT22;10398;52.490;13.434;2023-12-20T00:15:16;8.50;99.90
20479;DHT22;10398;52.490;13.434;2023-12-20T00:17:42;8.50;99.90
20479;DHT22;10398;52.490;13.434;2023-12-20T00:20:08;8.50;99.90
20479;DHT22;10398;52.490;13.434;2023-12-20T00:22:33;8.50;99.90
20479;DHT22;10398;52.490;13.434;2023-12-20T00:24:59;8.40;99.90
20479;DHT22;10398;52.490;13.434;2023-12-20T00:27:24;8.50;99.90
20479;DHT22;10398;52.490;13.434;2023-12-20T00:29:50;8.50;99.90
20479;DHT22;10398;52.490;13.434;2023-12-20T00:32:16;8.50;99.90
20479;DHT22;10398;52.490;13.434;2023-12-20T00:34:42;8.50;99.90
20479;DHT22;10398;52.490;13.434;2023-12-20T00:37:08;8.50;99.90
20479;DHT22;10398;52.490;13.434;2023-12-20T00:39:34;8.40;99.90
20479;DHT22;10398;52.490;13.434;2023-12-20T00:42:00;8.50;99.90
20479;DHT22;10398;52.490;13.434;2023-12-20T00:44:28;8.50;99.90
20479;DHT22;10398;52.490;13.434;2023-12-20T00:46:53;8.50;99.90
20479;DHT22;10398;52.490;13.434;2023-12-20T00:49:19;8.50;99.90
20479;DHT22;10398;52.490;13.434;2023-12-20T00:51:45;8.50;99.90
20479;DHT22;10398;52.490;13.434;2023-12-20T00:54:10;8.50;99.90
20479;DHT22;10398;52.490;13.434;2023-12-20T00:56:36;8.60;99.90
20479;DHT22;10398;52.490;13.434;2023-12-20T00:59:01;8.50;99.90
20479;DHT22;10398;52.490;13.434;2023-12-20T01:01:27;8.50;99.90
20479;DHT22;10398;52.490;13.434;2023-12-20T01:03:52;8.50;99.90
20479;DHT22;10398;52.490;13.434;2023-12-20T01:06:18;8.60;99.90
20479;DHT22;10398;52.490;13.434;2023-12-20T01:08:45;8.50;99.90
20479;DHT22;10398;52.490;13.434;2023-12-20T01:11:10;8.60;99.90
20479;DHT22;10398;52.490;13.434;2023-12-20T01:13:36;8.60;99.90
20479;DHT22;10398;52.490;13.434;2023-12-20T01:16:02;8.60;99.90
20479;DHT22;10398;52.490;13.434;2023-12-20T01:18:28;8.50;99.90
20479;DHT22;10398;52.490;13.434;2023-12-20T01:20:53;8.50;99.90
20479;DHT22;10398;52.490;13.434;2023-12-20T01:23:19;8.50;99.90
20479;DHT22;10398;52.490;13.434;2023-12-20T01:25:44;8.50;99.90
20479;DHT22;10398;52.490;13.434;2023-12-20T01:28:10;8.50;99.90
20479;DHT22;10398;52.490;13.434;2023-12-20T01:30:36;8.60;99.90
20479;DHT22;10398;52.490;13.434;2023-12-20T01:33:01;8.60;99.90
20479;DHT22;10398;52.490;13.434;2023-12-20T01:35:27;8.60;99.90
20479;DHT22;10398;52.490;13.434;2023-12-20T01:37:53;8.60;99.90
20479;DHT22;10398;52.490;13.434;2023-12-20T01:40:22;8.60;99.90
20479;DHT22;10398;52.490;13.434;2023-12-20T01:42:57;8.50;99.90
20479;DHT22;10398;52.490;13.434;2023-12-20T01:45:23;8.60;99.90
20479;DHT22;10398;52.490;13.434;2023-12-20T01:47:49;8.60;99.90
20479;DHT22;10398;52.490;13.434;2023-12-20T01:50:15;8.60;99.90
20479;DHT22;10398;52.490;13.434;2023-12-20T01:52:42;8.60;99.90
20479;DHT22;10398;52.490;13.434;2023-12-20T01:55:08;8.70;99.90
20479;DHT22;10398;52.490;13.434;2023-12-20T01:57:40;8.60;99.90
20479;DHT22;10398;52.490;13.434;2023-12-20T02:00:06;8.70;99.90
20479;DHT22;10398;52.490;13.434;2023-12-20T02:02:36;8.70;99.90
20479;DHT22;10398;52.490;13.434;2023-12-20T02:05:03;8.70;99.90
20479;DHT22;10398;52.490;13.434;2023-12-20T02:07:29;8.70;99.90
20479;DHT22;10398;52.490;13.434;2023-12-20T02:09:55;8.70;99.90
20479;DHT22;10398;52.490;13.434;2023-12-20T02:12:21;8.70;99.90
20479;DHT22;10398;52.490;13.434;2023-12-20T02:14:47;8.70;99.90
20479;DHT22;10398;52.490;13.434;2023-12-20T02:17:13;8.70;99.90
20479;DHT22;10398;52.490;13.434;2023-12-20T02:19:39;8.80;99.90
20479;DHT22;10398;52.490;13.434;2023-12-20T02:22:10;8.80;99.90
20479;DHT22;10398;52.490;13.434;2023-12-20T02:24:36;8.80;99.90
20479;DHT22;10398;52.490;13.434;2023-12-20T02:27:01;8.80;99.90
20479;DHT22;10398;52.490;13.434;2023-12-20T02:29:27;8.90;99.90
20479;DHT22;10398;52.490;13.434;2023-12-20T02:31:53;8.90;99.90
20479;DHT22;10398;52.490;13.434;2023-12-20T02:34:18;8.90;99.90
20479;DHT22;10398;52.490;13.434;2023-12-20T02:36:44;8.90;99.90
20479;DHT22;10398;52.490;13.434;2023-12-20T02:39:09;8.90;99.90
20479;DHT22;10398;52.490;13.434;2023-12-20T02:41:35;8.90;99.90
20479;DHT22;10398;52.490;13.434;2023-12-20T02:44:01;9.00;99.90
20479;DHT22;10398;52.490;13.434;2023-12-20T02:46:27;9.00;99.90
20479;DHT22;10398;52.490;13.434;2023-12-20T02:48:53;8.90;99.90
20479;DHT22;10398;52.490;13.434;2023-12-20T02:51:18;9.00;99.90
20479;DHT22;10398;52.490;13.434;2023-12-20T02:53:44;9.00;99.90
20479;DHT22;10398;52.490;13.434;2023-12-20T02:56:09;8.90;99.90
20479;DHT22;10398;52.490;13.434;2023-12-20T02:58:35;9.00;99.90
20479;DHT22;10398;52.490;13.434;2023-12-20T03:01:01;9.00;99.90
20479;DHT22;10398;52.490;13.434;2023-12-20T03:03:27;8.90;99.90
20479;DHT22;10398;52.490;13.434;2023-12-20T03:05:52;9.00;99.90
20479;DHT22;10398;52.490;13.434;2023-12-20T03:08:18;8.90;99.90
20479;DHT22;10398;52.490;13.434;2023-12-20T03:10:44;8.90;99.90
20479;DHT22;10398;52.490;13.434;2023-12-20T03:13:10;9.00;99.90
20479;DHT22;10398;52.490;13.434;2023-12-20T03:15:35;8.90;99.90
20479;DHT22;10398;52.490;13.434;2023-12-20T03:18:01;9.00;99.90
20479;DHT22;10398;52.490;13.434;2023-12-20T03:20:27;9.00;99.90
20479;DHT22;10398;52.490;13.434;2023-12-20T03:22:52;9.00;99.90
20479;DHT22;10398;52.490;13.434;2023-12-20T03:25:18;9.00;99.90
20479;DHT22;10398;52.490;13.434;2023-12-20T03:27:44;9.00;99.90
20479;DHT22;10398;52.490;13.434;2023-12-20T03:30:09;9.00;99.90
20479;DHT22;10398;52.490;13.434;2023-12-20T03:32:36;9.00;99.90
20479;DHT22;10398;52.490;13.434;2023-12-20T03:35:03;9.00;99.90
20479;DHT22;10398;52.490;13.434;2023-12-20T03:37:28;9.00;99.90
20479;DHT22;10398;52.490;13.434;2023-12-20T03:39:54;9.00;99.90
20479;DHT22;10398;52.490;13.434;2023-12-20T03:42:20;9.00;99.90
20479;DHT22;10398;52.490;13.434;2023-12-20T03:44:45;9.00;99.90
20479;DHT22;10398;52.490;13.434;2023-12-20T03:47:11;9.00;99.90
20479;DHT22;10398;52.490;13.434;2023-12-20T03:49:37;9.00;99.90
20479;DHT22;10398;52.490;13.434;2023-12-20T03:52:04;9.10;99.90
20479;DHT22;10398;52.490;13.434;2023-12-20T03:54:30;9.00;99.90
20479;DHT22;10398;52.490;13.434;2023-12-20T03:56:55;9.00;99.90
20479;DHT22;10398;52.490;13.434;2023-12-20T03:59:21;9.00;99.90
20479;DHT22;10398;52.490;13.434;2023-12-20T04:01:46;9.10;99.90
20479;DHT22;10398;52.490;13.434;2023-12-20T04:04:13;9.00;99.90
20479;DHT22;10398;52.490;13.434;2023-12-20T04:06:39;9.00;99.90
20479;DHT22;10398;52.490;13.434;2023-12-20T04:09:05;8.90;99.90
20479;DHT22;10398;52.490;13.434;2023-12-20T04:11:31;8.90;99.90
20479;DHT22;10398;52.490;13.434;2023-12-20T04:13:56;8.90;99.90
20479;DHT22;10398;52.490;13.434;2023-12-20T04:16:22;8.90;99.90
20479;DHT22;10398;52.490;13.434;2023-12-20T04:18:47;8.90;99.90
20479;DHT22;10398;52.490;13.434;2023-12-20T04:21:13;8.80;99.90
20479;DHT22;10398;52.490;13.434;2023-12-20T04:23:39;8.80;99.90
20479;DHT22;10398;52.490;13.434;2023-12-20T04:26:04;8.80;99.90
20479;DHT22;10398;52.490;13.434;2023-12-20T04:28:30;8.80;99.90
20479;DHT22;10398;52.490;13.434;2023-12-20T04:30:56;8.80;99.90
20479;DHT22;10398;52.490;13.434;2023-12-20T04:33:22;8.80;99.90
20479;DHT22;10398;52.490;13.434;2023-12-20T04:35:48;8.80;99.90
20479;DHT22;10398;52.490;13.434;2023-12-20T04:38:13;8.80;99.90
20479;DHT22;10398;52.490;13.434;2023-12-20T04:40:39;8.70;99.90
20479;DHT22;10398;52.490;13.434;2023-12-20T04:43:06;8.70;99.90
20479;DHT22;10398;52.490;13.434;2023-12-20T04:45:32;8.70;99.90
20479;DHT22;10398;52.490;13.434;2023-12-20T04:47:58;8.60;99.90
20479;DHT22;10398;52.490;13.434;2023-12-20T04:50:23;8.60;99.90
20479;DHT22;10398;52.490;13.434;2023-12-20T04:52:49;8.60;99.90
20479;DHT22;10398;52.490;13.434;2023-12-20T04:55:15;8.60;99.90
20479;DHT22;10398;52.490;13.434;2023-12-20T04:57:40;8.50;99.90
20479;DHT22;10398;52.490;13.434;2023-12-20T05:00:06;8.40;99.90
20479;DHT22;10398;52.490;13.434;2023-12-20T05:02:37;8.40;99.90
20479;DHT22;10398;52.490;13.434;2023-12-20T05:05:02;8.40;99.90
20479;DHT22;10398;52.490;13.434;2023-12-20T05:07:28;8.40;99.90
20479;DHT22;10398;52.490;13.434;2023-12-20T05:09:54;8.30;99.90
20479;DHT22;10398;52.490;13.434;2023-12-20T05:12:19;8.30;99.90
20479;DHT22;10398;52.490;13.434;2023-12-20T05:14:45;8.30;99.90
20479;DHT22;10398;52.490;13.434;2023-12-20T05:17:11;8.30;99.90
20479;DHT22;10398;52.490;13.434;2023-12-20T05:19:37;8.30;99.90
20479;DHT22;10398;52.490;13.434;2023-12-20T05:22:02;8.20;99.90
20479;DHT22;10398;52.490;13.434;2023-12-20T05:24:28;8.30;99.90
20479;DHT22;10398;52.490;13.434;2023-12-20T05:26:54;8.30;99.90
20479;DHT22;10398;52.490;13.434;2023-12-20T05:29:20;8.20;99.90
20479;DHT22;10398;52.490;13.434;2023-12-20T05:31:45;8.10;99.90
20479;DHT22;10398;52.490;13.434;2023-12-20T05:34:11;8.10;99.90
20479;DHT22;10398;52.490;13.434;2023-12-20T05:36:37;8.00;99.90
20479;DHT22;10398;52.490;13.434;2023-12-20T05:39:03;8.00;99.90
20479;DHT22;10398;52.490;13.434;2023-12-20T05:41:30;8.00;99.90
20479;DHT22;10398;52.490;13.434;2023-12-20T05:43:55;8.00;99.90
20479;DHT22;10398;52.490;13.434;2023-12-20T05:46:23;8.00;99.90
20479;DHT22;10398;52.490;13.434;2023-12-20T05:48:49;8.00;99.90
20479;DHT22;10398;52.490;13.434;2023-12-20T05:51:15;7.90;99.90
20479;DHT22;10398;52.490;13.434;2023-12-20T05:53:40;7.80;99.90
20479;DHT22;10398;52.490;13.434;2023-12-20T05:56:06;7.70;99.90
20479;DHT22;10398;52.490;13.434;2023-12-20T05:58:32;7.70;99.90
20479;DHT22;10398;52.490;13.434;2023-12-20T06:00:58;7.70;99.90
20479;DHT22;10398;52.490;13.434;2023-12-20T06:03:24;7.60;99.90
20479;DHT22;10398;52.490;13.434;2023-12-20T06:05:50;7.60;99.90
20479;DHT22;10398;52.490;13.434;2023-12-20T06:08:15;7.60;99.90
20479;DHT22;10398;52.490;13.434;2023-12-20T06:10:41;7.60;99.90
20479;DHT22;10398;52.490;13.434;2023-12-20T06:13:06;7.50;99.90
20479;DHT22;10398;52.490;13.434;2023-12-20T06:15:32;7.50;99.90
20479;DHT22;10398;52.490;13.434;2023-12-20T06:17:58;7.50;99.90
20479;DHT22;10398;52.490;13.434;2023-12-20T06:20:24;7.50;99.90
20479;DHT22;10398;52.490;13.434;2023-12-20T06:22:50;7.50;99.90
20479;DHT22;10398;52.490;13.434;2023-12-20T06:25:16;7.50;99.90
20479;DHT22;10398;52.490;13.434;2023-12-20T06:27:42;7.50;99.90
20479;DHT22;10398;52.490;13.434;2023-12-20T06:30:08;7.40;99.90
20479;DHT22;10398;52.490;13.434;2023-12-20T06:32:36;7.40;99.90
20479;DHT22;10398;52.490;13.434;2023-12-20T06:35:04;7.40;99.90
20479;DHT22;10398;52.490;13.434;2023-12-20T06:37:30;7.40;99.90
20479;DHT22;10398;52.490;13.434;2023-12-20T06:39:56;7.50;99.90
20479;DHT22;10398;52.490;13.434;2023-12-20T06:42:22;7.60;99.90
20479;DHT22;10398;52.490;13.434;2023-12-20T06:44:48;7.70;99.90
20479;DHT22;10398;52.490;13.434;2023-12-20T06:47:13;7.80;99.90
20479;DHT22;10398;52.490;13.434;2023-12-20T06:49:40;7.80;99.90
20479;DHT22;10398;52.490;13.434;2023-12-20T06:52:06;7.90;99.90
20479;DHT22;10398;52.490;13.434;2023-12-20T06:54:31;7.90;99.90
20479;DHT22;10398;52.490;13.434;2023-12-20T06:56:59;8.00;99.90
20479;DHT22;10398;52.490;13.434;2023-12-20T06:59:25;8.00;99.90
20479;DHT22;10398;52.490;13.434;2023-12-20T07:01:51;8.00;99.90
20479;DHT22;10398;52.490;13.434;2023-12-20T07:04:17;8.00;99.90
20479;DHT22;10398;52.490;13.434;2023-12-20T07:06:48;7.80;99.90
20479;DHT22;10398;52.490;13.434;2023-12-20T07:09:14;7.70;99.90
20479;DHT22;10398;52.490;13.434;2023-12-20T07:11:40;7.60;99.90
20479;DHT22;10398;52.490;13.434;2023-12-20T07:14:06;7.50;99.90
20479;DHT22;10398;52.490;13.434;2023-12-20T07:16:31;7.50;99.90
20479;DHT22;10398;52.490;13.434;2023-12-20T07:18:57;7.50;99.90
20479;DHT22;10398;52.490;13.434;2023-12-20T07:21:23;7.40;99.90
20479;DHT22;10398;52.490;13.434;2023-12-20T07:23:48;7.40;99.90
20479;DHT22;10398;52.490;13.434;2023-12-20T07:26:15;7.30;99.90
20479;DHT22;10398;52.490;13.434;2023-12-20T07:28:41;7.40;99.90
20479;DHT22;10398;52.490;13.434;2023-12-20T07:31:06;7.30;99.90
20479;DHT22;10398;52.490;13.434;2023-12-20T07:33:32;7.30;99.90
20479;DHT22;10398;52.490;13.434;2023-12-20T07:35:59;7.20;99.90
20479;DHT22;10398;52.490;13.434;2023-12-20T07:38:25;7.20;99.90
20479;DHT22;10398;52.490;13.434;2023-12-20T07:40:50;7.20;99.90
20479;DHT22;10398;52.490;13.434;2023-12-20T07:43:16;7.20;99.90
20479;DHT22;10398;52.490;13.434;2023-12-20T07:45:42;7.20;99.90
20479;DHT22;10398;52.490;13.434;2023-12-20T07:48:07;7.10;99.90
20479;DHT22;10398;52.490;13.434;2023-12-20T07:50:35;7.10;99.90
20479;DHT22;10398;52.490;13.434;2023-12-20T07:53:00;7.10;99.90
20479;DHT22;10398;52.490;13.434;2023-12-20T07:55:27;7.20;99.90
20479;DHT22;10398;52.490;13.434;2023-12-20T07:57:52;7.10;99.90
20479;DHT22;10398;52.490;13.434;2023-12-20T08:00:18;7.10;99.90
20479;DHT22;10398;52.490;13.434;2023-12-20T08:02:44;7.20;99.90
20479;DHT22;10398;52.490;13.434;2023-12-20T08:05:10;7.10;99.90
20479;DHT22;10398;52.490;13.434;2023-12-20T08:07:36;7.20;99.90
20479;DHT22;10398;52.490;13.434;2023-12-20T08:10:02;7.20;99.90
20479;DHT22;10398;52.490;13.434;2023-12-20T08:12:27;7.10;99.90
20479;DHT22;10398;52.490;13.434;2023-12-20T08:14:54;7.10;99.90
20479;DHT22;10398;52.490;13.434;2023-12-20T08:17:19;7.10;99.90
20479;DHT22;10398;52.490;13.434;2023-12-20T08:19:45;7.20;99.90
20479;DHT22;10398;52.490;13.434;2023-12-20T08:22:11;7.20;99.90
20479;DHT22;10398;52.490;13.434;2023-12-20T08:24:37;7.10;99.90
20479;DHT22;10398;52.490;13.434;2023-12-20T08:27:04;7.00;99.90
20479;DHT22;10398;52.490;13.434;2023-12-20T08:29:29;7.10;99.90
20479;DHT22;10398;52.490;13.434;2023-12-20T08:31:55;7.10;99.90
20479;DHT22;10398;52.490;13.434;2023-12-20T08:34:22;7.10;99.90
20479;DHT22;10398;52.490;13.434;2023-12-20T08:36:47;7.10;99.90
20479;DHT22;10398;52.490;13.434;2023-12-20T08:39:13;7.10;99.90
20479;DHT22;10398;52.490;13.434;2023-12-20T08:41:38;7.20;99.90
20479;DHT22;10398;52.490;13.434;2023-12-20T08:44:04;7.10;99.90
20479;DHT22;10398;52.490;13.434;2023-12-20T08:46:30;7.20;99.90
20479;DHT22;10398;52.490;13.434;2023-12-20T08:48:56;7.20;99.90
20479;DHT22;10398;52.490;13.434;2023-12-20T08:51:21;7.10;99.90
20479;DHT22;10398;52.490;13.434;2023-12-20T08:53:49;7.20;99.90
20479;DHT22;10398;52.490;13.434;2023-12-20T08:56:15;7.30;99.90
20479;DHT22;10398;52.490;13.434;2023-12-20T08:58:41;7.30;99.90
20479;DHT22;10398;52.490;13.434;2023-12-20T09:01:07;7.40;99.90
20479;DHT22;10398;52.490;13.434;2023-12-20T09:03:33;7.40;99.90
20479;DHT22;10398;52.490;13.434;2023-12-20T09:05:58;7.40;99.90
20479;DHT22;10398;52.490;13.434;2023-12-20T09:08:24;7.40;99.90
20479;DHT22;10398;52.490;13.434;2023-12-20T09:10:50;7.40;99.90
20479;DHT22;10398;52.490;13.434;2023-12-20T09:13:16;7.40;99.90
20479;DHT22;10398;52.490;13.434;2023-12-20T09:15:41;7.50;99.90
20479;DHT22;10398;52.490;13.434;2023-12-20T09:18:07;7.50;99.90
20479;DHT22;10398;52.490;13.434;2023-12-20T09:20:33;7.50;99.90
20479;DHT22;10398;52.490;13.434;2023-12-20T09:22:59;7.60;99.90
20479;DHT22;10398;52.490;13.434;2023-12-20T09:25:25;7.50;99.90
20479;DHT22;10398;52.490;13.434;2023-12-20T09:27:52;7.50;99.90
20479;DHT22;10398;52.490;13.434;2023-12-20T09:30:18;7.50;99.90
20479;DHT22;10398;52.490;13.434;2023-12-20T09:32:43;7.50;99.90
20479;DHT22;10398;52.490;13.434;2023-12-20T09:35:09;7.50;99.90
20479;DHT22;10398;52.490;13.434;2023-12-20T09:37:35;7.40;99.90
20479;DHT22;10398;52.490;13.434;2023-12-20T09:40:01;7.50;99.90
20479;DHT22;10398;52.490;13.434;2023-12-20T09:42:40;7.50;99.90
20479;DHT22;10398;52.490;13.434;2023-12-20T09:45:09;7.60;99.90
20479;DHT22;10398;52.490;13.434;2023-12-20T09:47:37;7.60;99.90
20479;DHT22;10398;52.490;13.434;2023-12-20T09:50:03;7.50;99.90
20479;DHT22;10398;52.490;13.434;2023-12-20T09:52:29;7.50;99.90
20479;DHT22;10398;52.490;13.434;2023-12-20T09:54:55;7.60;99.90
20479;DHT22;10398;52.490;13.434;2023-12-20T09:57:22;7.60;99.90
20479;DHT22;10398;52.490;13.434;2023-12-20T09:59:48;7.60;99.90
20479;DHT22;10398;52.490;13.434;2023-12-20T10:02:14;7.60;99.90
20479;DHT22;10398;52.490;13.434;2023-12-20T10:04:47;7.60;99.90
20479;DHT22;10398;52.490;13.434;2023-12-20T10:07:13;7.60;99.90
20479;DHT22;10398;52.490;13.434;2023-12-20T10:09:39;7.60;99.90
20479;DHT22;10398;52.490;13.434;2023-12-20T10:12:05;7.70;99.90
20479;DHT22;10398;52.490;13.434;2023-12-20T10:14:32;7.70;99.90
20479;DHT22;10398;52.490;13.434;2023-12-20T10:17:03;7.60;99.90
20479;DHT22;10398;52.490;13.434;2023-12-20T10:19:29;7.60;99.90
20479;DHT22;10398;52.490;13.434;2023-12-20T10:21:54;7.70;99.90
20479;DHT22;10398;52.490;13.434;2023-12-20T10:24:20;7.70;99.90
20479;DHT22;10398;52.490;13.434;2023-12-20T10:26:46;7.70;99.90
20479;DHT22;10398;52.490;13.434;2023-12-20T10:29:12;7.70;99.90
20479;DHT22;10398;52.490;13.434;2023-12-20T10:31:37;7.80;99.90
20479;DHT22;10398;52.490;13.434;2023-12-20T10:34:07;7.80;99.90
20479;DHT22;10398;52.490;13.434;2023-12-20T10:36:33;7.70;99.90
20479;DHT22;10398;52.490;13.434;2023-12-20T10:38:59;7.80;99.90
20479;DHT22;10398;52.490;13.434;2023-12-20T10:41:31;7.80;99.90
20479;DHT22;10398;52.490;13.434;2023-12-20T10:44:00;7.80;99.90
20479;DHT22;10398;52.490;13.434;2023-12-20T10:46:29;7.80;99.90
20479;DHT22;10398;52.490;13.434;2023-12-20T10:48:56;7.90;99.90
20479;DHT22;10398;52.490;13.434;2023-12-20T10:51:22;7.90;99.90
20479;DHT22;10398;52.490;13.434;2023-12-20T10:53:50;7.90;99.90
20479;DHT22;10398;52.490;13.434;2023-12-20T10:56:19;7.80;99.90
20479;DHT22;10398;52.490;13.434;2023-12-20T10:58:47;7.80;99.90
20479;DHT22;10398;52.490;13.434;2023-12-20T11:01:14;7.90;99.90
20479;DHT22;10398;52.490;13.434;2023-12-20T11:03:51;7.90;99.90
20479;DHT22;10398;52.490;13.434;2023-12-20T11:17:09;7.90;99.90
20479;DHT22;10398;52.490;13.434;2023-12-20T11:22:21;7.90;99.90
20479;DHT22;10398;52.490;13.434;2023-12-20T11:24:48;7.90;99.90
20479;DHT22;10398;52.490;13.434;2023-12-20T11:27:14;7.90;99.90
20479;DHT22;10398;52.490;13.434;2023-12-20T11:29:40;8.00;99.90
20479;DHT22;10398;52.490;13.434;2023-12-20T11:34:58;8.00;99.90
20479;DHT22;10398;52.490;13.434;2023-12-20T11:37:32;7.90;99.90
20479;DHT22;10398;52.490;13.434;2023-12-20T11:40:22;7.90;99.90
20479;DHT22;10398;52.490;13.434;2023-12-20T11:42:51;7.90;99.90
20479;DHT22;10398;52.490;13.434;2023-12-20T11:45:21;7.90;99.90
20479;DHT22;10398;52.490;13.434;2023-12-20T11:47:50;7.90;99.90
20479;DHT22;10398;52.490;13.434;2023-12-20T11:50:17;7.90;99.90
20479;DHT22;10398;52.490;13.434;2023-12-20T11:52:43;7.90;99.90
20479;DHT22;10398;52.490;13.434;2023-12-20T11:55:09;7.80;99.90
20479;DHT22;10398;52.490;13.434;2023-12-20T11:57:36;7.80;99.90
20479;DHT22;10398;52.490;13.434;2023-12-20T12:00:03;7.80;99.90
20479;DHT22;10398;52.490;13.434;2023-12-20T12:02:30;7.80;99.90
20479;DHT22;10398;52.490;13.434;2023-12-20T12:04:55;7.80;99.90
20479;DHT22;10398;52.490;13.434;2023-12-20T12:07:22;7.70;99.90
20479;DHT22;10398;52.490;13.434;2023-12-20T12:09:48;7.80;99.90
20479;DHT22;10398;52.490;13.434;2023-12-20T12:12:13;7.80;99.90
20479;DHT22;10398;52.490;13.434;2023-12-20T12:14:39;7.90;99.90
20479;DHT22;10398;52.490;13.434;2023-12-20T12:17:14;7.80;99.90
20479;DHT22;10398;52.490;13.434;2023-12-20T12:19:43;7.90;99.90
20479;DHT22;10398;52.490;13.434;2023-12-20T12:22:10;7.90;99.90
20479;DHT22;10398;52.490;13.434;2023-12-20T12:24:40;7.90;99.90
20479;DHT22;10398;52.490;13.434;2023-12-20T12:27:06;7.90;99.90
20479;DHT22;10398;52.490;13.434;2023-12-20T12:29:33;8.00;99.90
20479;DHT22;10398;52.490;13.434;2023-12-20T12:31:59;8.00;99.90
20479;DHT22;10398;52.490;13.434;2023-12-20T12:34:27;8.00;99.90
20479;DHT22;10398;52.490;13.434;2023-12-20T12:36:53;8.00;99.90
20479;DHT22;10398;52.490;13.434;2023-12-20T12:39:20;7.90;99.90
20479;DHT22;10398;52.490;13.434;2023-12-20T12:41:45;7.80;99.90
20479;DHT22;10398;52.490;13.434;2023-12-20T12:44:11;7.70;99.90
20479;DHT22;10398;52.490;13.434;2023-12-20T12:46:36;7.70;99.90
20479;DHT22;10398;52.490;13.434;2023-12-20T12:49:02;7.70;99.90
20479;DHT22;10398;52.490;13.434;2023-12-20T12:51:28;7.70;99.90
20479;DHT22;10398;52.490;13.434;2023-12-20T12:53:53;7.70;99.90
20479;DHT22;10398;52.490;13.434;2023-12-20T12:56:19;7.60;99.90
20479;DHT22;10398;52.490;13.434;2023-12-20T12:58:45;7.50;99.90
20479;DHT22;10398;52.490;13.434;2023-12-20T13:01:11;7.50;99.90
20479;DHT22;10398;52.490;13.434;2023-12-20T13:03:37;7.50;99.90
20479;DHT22;10398;52.490;13.434;2023-12-20T13:06:03;7.40;99.90
20479;DHT22;10398;52.490;13.434;2023-12-20T13:08:31;7.40;99.90
20479;DHT22;10398;52.490;13.434;2023-12-20T13:10:57;7.50;99.90
20479;DHT22;10398;52.490;13.434;2023-12-20T13:13:26;7.50;99.90
20479;DHT22;10398;52.490;13.434;2023-12-20T13:15:52;7.50;99.90
20479;DHT22;10398;52.490;13.434;2023-12-20T13:18:20;7.50;99.90
20479;DHT22;10398;52.490;13.434;2023-12-20T13:20:46;7.40;99.90
20479;DHT22;10398;52.490;13.434;2023-12-20T13:23:12;7.50;99.90
20479;DHT22;10398;52.490;13.434;2023-12-20T13:25:37;7.50;99.90
20479;DHT22;10398;52.490;13.434;2023-12-20T13:28:03;7.60;99.90
20479;DHT22;10398;52.490;13.434;2023-12-20T13:30:29;7.70;99.90
20479;DHT22;10398;52.490;13.434;2023-12-20T13:32:55;7.80;99.90
20479;DHT22;10398;52.490;13.434;2023-12-20T13:35:21;7.70;99.90
20479;DHT22;10398;52.490;13.434;2023-12-20T13:37:46;7.70;99.90
20479;DHT22;10398;52.490;13.434;2023-12-20T13:40:12;7.50;99.90
20479;DHT22;10398;52.490;13.434;2023-12-20T13:42:39;7.40;99.90
20479;DHT22;10398;52.490;13.434;2023-12-20T13:45:05;7.40;99.90
20479;DHT22;10398;52.490;13.434;2023-12-20T13:47:32;7.40;99.90
20479;DHT22;10398;52.490;13.434;2023-12-20T13:49:57;7.30;99.90
20479;DHT22;10398;52.490;13.434;2023-12-20T13:52:23;7.30;99.90
20479;DHT22;10398;52.490;13.434;2023-12-20T13:54:49;7.20;99.90
20479;DHT22;10398;52.490;13.434;2023-12-20T13:57:14;7.20;99.90
20479;DHT22;10398;52.490;13.434;2023-12-20T13:59:40;7.10;99.90
20479;DHT22;10398;52.490;13.434;2023-12-20T14:02:06;7.10;99.90
20479;DHT22;10398;52.490;13.434;2023-12-20T14:04:31;7.20;99.90
20479;DHT22;10398;52.490;13.434;2023-12-20T14:06:57;7.20;99.90
20479;DHT22;10398;52.490;13.434;2023-12-20T14:09:23;7.30;99.90
20479;DHT22;10398;52.490;13.434;2023-12-20T14:11:49;7.30;99.90
20479;DHT22;10398;52.490;13.434;2023-12-20T14:14:14;7.20;99.90
20479;DHT22;10398;52.490;13.434;2023-12-20T14:16:40;7.30;99.90
20479;DHT22;10398;52.490;13.434;2023-12-20T14:19:06;7.30;99.90
20479;DHT22;10398;52.490;13.434;2023-12-20T14:21:34;7.20;99.90
20479;DHT22;10398;52.490;13.434;2023-12-20T14:24:00;7.10;99.90
20479;DHT22;10398;52.490;13.434;2023-12-20T14:26:26;7.10;99.90
20479;DHT22;10398;52.490;13.434;2023-12-20T14:28:53;7.10;99.90
20479;DHT22;10398;52.490;13.434;2023-12-20T14:31:19;7.00;99.90
20479;DHT22;10398;52.490;13.434;2023-12-20T14:33:44;7.00;99.90
20479;DHT22;10398;52.490;13.434;2023-12-20T14:36:11;7.00;99.90
20479;DHT22;10398;52.490;13.434;2023-12-20T14:38:37;7.00;99.90
20479;DHT22;10398;52.490;13.434;2023-12-20T14:41:03;6.90;99.90
20479;DHT22;10398;52.490;13.434;2023-12-20T14:43:29;6.90;99.90
20479;DHT22;10398;52.490;13.434;2023-12-20T14:45:55;6.90;99.90
20479;DHT22;10398;52.490;13.434;2023-12-20T14:48:21;6.90;99.90
20479;DHT22;10398;52.490;13.434;2023-12-20T14:50:47;6.90;99.90
20479;DHT22;10398;52.490;13.434;2023-12-20T14:53:14;7.00;99.90
20479;DHT22;10398;52.490;13.434;2023-12-20T14:55:42;7.00;99.90
20479;DHT22;10398;52.490;13.434;2023-12-20T14:58:08;7.00;99.90
20479;DHT22;10398;52.490;13.434;2023-12-20T15:00:34;7.00;99.90
20479;DHT22;10398;52.490;13.434;2023-12-20T15:02:59;6.90;99.90
20479;DHT22;10398;52.490;13.434;2023-12-20T15:05:25;6.90;99.90
20479;DHT22;10398;52.490;13.434;2023-12-20T15:07:52;7.00;99.90
20479;DHT22;10398;52.490;13.434;2023-12-20T15:10:18;6.90;99.90
20479;DHT22;10398;52.490;13.434;2023-12-20T15:12:44;6.90;99.90
20479;DHT22;10398;52.490;13.434;2023-12-20T15:15:13;6.90;99.90
20479;DHT22;10398;52.490;13.434;2023-12-20T15:17:39;6.90;99.90
20479;DHT22;10398;52.490;13.434;2023-12-20T15:20:05;6.90;99.90
20479;DHT22;10398;52.490;13.434;2023-12-20T15:22:31;6.90;99.90
20479;DHT22;10398;52.490;13.434;2023-12-20T15:24:59;6.90;99.90
20479;DHT22;10398;52.490;13.434;2023-12-20T15:27:25;6.90;99.90
20479;DHT22;10398;52.490;13.434;2023-12-20T15:29:50;6.80;99.90
20479;DHT22;10398;52.490;13.434;2023-12-20T15:32:17;6.80;99.90
20479;DHT22;10398;52.490;13.434;2023-12-20T15:34:44;6.80;99.90
20479;DHT22;10398;52.490;13.434;2023-12-20T15:37:11;6.80;99.90
20479;DHT22;10398;52.490;13.434;2023-12-20T15:39:36;6.80;99.90